sensor_id;sensor_type;location;lat;lon;timestamp;temperature;humidity
67870;DHT22;54673;52.262;6.830;2023-06-04T00:01:40;23.70;34.00
67870;DHT22;54673;52.262;6.830;2023-06-04T00:04:05;23.70;34.00
67870;DHT22;54673;52.262;6.830;2023-06-04T00:06:31;23.70;34.90
67870;DHT22;54673;52.262;6.830;2023-06-04T00:08:56;23.80;34.00
67870;DHT22;54673;52.262;6.830;2023-06-04T00:11:22;23.80;34.10
67870;DHT22;54673;52.262;6.830;2023-06-04T00:13:48;23.80;34.00
67870;DHT22;54673;52.262;6.830;2023-06-04T00:16:13;23.80;34.10
67870;DHT22;54673;52.262;6.830;2023-06-04T00:18:39;23.80;34.00
67870;DHT22;54673;52.262;6.830;2023-06-04T00:21:04;23.80;33.90
67870;DHT22;54673;52.262;6.830;2023-06-04T00:23:30;23.80;33.90
67870;DHT22;54673;52.262;6.830;2023-06-04T00:25:56;23.80;34.00
67870;DHT22;54673;52.262;6.830;2023-06-04T00:28:21;23.80;34.80
67870;DHT22;54673;52.262;6.830;2023-06-04T00:30:47;23.80;33.90
67870;DHT22;54673;52.262;6.830;2023-06-04T00:33:12;23.80;33.90
67870;DHT22;54673;52.262;6.830;2023-06-04T00:35:38;23.80;33.90
67870;DHT22;54673;52.262;6.830;2023-06-04T00:38:03;23.80;33.90
67870;DHT22;54673;52.262;6.830;2023-06-04T00:40:29;23.80;34.00
67870;DHT22;54673;52.262;6.830;2023-06-04T00:42:54;23.80;34.00
67870;DHT22;54673;52.262;6.830;2023-06-04T00:45:23;23.70;34.00
67870;DHT22;54673;52.262;6.830;2023-06-04T00:47:51;23.70;34.00
67870;DHT22;54673;52.262;6.830;2023-06-04T00:50:18;23.70;33.90
67870;DHT22;54673;52.262;6.830;2023-06-04T00:52:47;23.80;34.00
67870;DHT22;54673;52.262;6.830;2023-06-04T00:55:12;23.70;33.90
67870;DHT22;54673;52.262;6.830;2023-06-04T00:57:38;23.70;33.90
67870;DHT22;54673;52.262;6.830;2023-06-04T01:00:04;23.70;33.90
67870;DHT22;54673;52.262;6.830;2023-06-04T01:02:32;23.70;33.90
67870;DHT22;54673;52.262;6.830;2023-06-04T01:07:35;23.70;33.90
67870;DHT22;54673;52.262;6.830;2023-06-04T01:10:01;23.70;33.90
67870;DHT22;54673;52.262;6.830;2023-06-04T01:12:27;23.70;33.90
67870;DHT22;54673;52.262;6.830;2023-06-04T01:14:52;23.70;33.90
67870;DHT22;54673;52.262;6.830;2023-06-04T01:17:41;23.70;33.90
67870;DHT22;54673;52.262;6.830;2023-06-04T01:20:34;23.70;33.90
67870;DHT22;54673;52.262;6.830;2023-06-04T01:25:47;23.70;33.80
67870;DHT22;54673;52.262;6.830;2023-06-04T01:28:15;23.70;33.80
67870;DHT22;54673;52.262;6.830;2023-06-04T01:30:45;23.70;33.80
67870;DHT22;54673;52.262;6.830;2023-06-04T01:33:17;23.70;33.80
67870;DHT22;54673;52.262;6.830;2023-06-04T01:35:43;23.70;33.90
67870;DHT22;54673;52.262;6.830;2023-06-04T01:38:09;23.70;33.90
67870;DHT22;54673;52.262;6.830;2023-06-04T01:40:35;23.70;33.90
67870;DHT22;54673;52.262;6.830;2023-06-04T01:43:01;23.70;33.90
67870;DHT22;54673;52.262;6.830;2023-06-04T01:45:27;23.70;33.80
67870;DHT22;54673;52.262;6.830;2023-06-04T01:47:53;23.60;33.80
67870;DHT22;54673;52.262;6.830;2023-06-04T01:50:20;23.60;33.90
67870;DHT22;54673;52.262;6.830;2023-06-04T01:52:46;23.60;33.80
67870;DHT22;54673;52.262;6.830;2023-06-04T01:55:14;23.60;33.90
67870;DHT22;54673;52.262;6.830;2023-06-04T01:57:41;23.60;33.90
67870;DHT22;54673;52.262;6.830;2023-06-04T02:00:08;23.60;33.90
67870;DHT22;54673;52.262;6.830;2023-06-04T02:02:36;23.60;33.80
67870;DHT22;54673;52.262;6.830;2023-06-04T02:05:05;23.60;33.80
67870;DHT22;54673;52.262;6.830;2023-06-04T02:07:37;23.60;33.80
67870;DHT22;54673;52.262;6.830;2023-06-04T02:10:08;23.60;33.80
67870;DHT22;54673;52.262;6.830;2023-06-04T02:12:36;23.60;33.80
67870;DHT22;54673;52.262;6.830;2023-06-04T02:15:02;23.60;33.80
67870;DHT22;54673;52.262;6.830;2023-06-04T02:17:28;23.60;33.90
67870;DHT22;54673;52.262;6.830;2023-06-04T02:19:58;23.60;33.80
67870;DHT22;54673;52.262;6.830;2023-06-04T02:22:24;23.60;33.70
67870;DHT22;54673;52.262;6.830;2023-06-04T02:24:50;23.70;33.70
67870;DHT22;54673;52.262;6.830;2023-06-04T02:27:15;23.60;33.70
67870;DHT22;54673;52.262;6.830;2023-06-04T02:29:41;23.60;33.70
67870;DHT22;54673;52.262;6.830;2023-06-04T02:32:08;23.60;33.70
67870;DHT22;54673;52.262;6.830;2023-06-04T02:34:34;23.60;33.70
67870;DHT22;54673;52.262;6.830;2023-06-04T02:37:00;23.60;33.70
67870;DHT22;54673;52.262;6.830;2023-06-04T02:39:25;23.60;33.70
67870;DHT22;54673;52.262;6.830;2023-06-04T02:41:51;23.60;33.70
67870;DHT22;54673;52.262;6.830;2023-06-04T02:44:17;23.60;33.70
67870;DHT22;54673;52.262;6.830;2023-06-04T02:46:43;23.50;33.70
67870;DHT22;54673;52.262;6.830;2023-06-04T02:49:10;23.50;33.70
67870;DHT22;54673;52.262;6.830;2023-06-04T02:51:39;23.60;33.70
67870;DHT22;54673;52.262;6.830;2023-06-04T02:54:05;23.50;33.70
67870;DHT22;54673;52.262;6.830;2023-06-04T02:56:30;23.50;33.70
67870;DHT22;54673;52.262;6.830;2023-06-04T02:58:56;23.50;33.80
67870;DHT22;54673;52.262;6.830;2023-06-04T03:01:23;23.50;33.70
67870;DHT22;54673;52.262;6.830;2023-06-04T03:03:49;23.50;33.70
67870;DHT22;54673;52.262;6.830;2023-06-04T03:06:16;23.50;33.70
67870;DHT22;54673;52.262;6.830;2023-06-04T03:08:43;23.70;33.90
67870;DHT22;54673;52.262;6.830;2023-06-04T03:11:08;23.50;33.70
67870;DHT22;54673;52.262;6.830;2023-06-04T03:13:35;23.50;33.70
67870;DHT22;54673;52.262;6.830;2023-06-04T03:16:01;23.50;33.70
67870;DHT22;54673;52.262;6.830;2023-06-04T03:18:27;23.50;33.80
67870;DHT22;54673;52.262;6.830;2023-06-04T03:20:54;23.50;33.80
67870;DHT22;54673;52.262;6.830;2023-06-04T03:23:20;23.50;33.70
67870;DHT22;54673;52.262;6.830;2023-06-04T03:25:46;23.50;33.80
67870;DHT22;54673;52.262;6.830;2023-06-04T03:28:12;23.50;33.70
67870;DHT22;54673;52.262;6.830;2023-06-04T03:30:37;23.50;33.80
67870;DHT22;54673;52.262;6.830;2023-06-04T03:33:03;23.50;33.60
67870;DHT22;54673;52.262;6.830;2023-06-04T03:35:29;23.50;33.60
67870;DHT22;54673;52.262;6.830;2023-06-04T03:37:54;23.50;33.70
67870;DHT22;54673;52.262;6.830;2023-06-04T03:40:20;23.50;33.80
67870;DHT22;54673;52.262;6.830;2023-06-04T03:42:46;23.50;33.80
67870;DHT22;54673;52.262;6.830;2023-06-04T03:45:11;23.50;33.80
67870;DHT22;54673;52.262;6.830;2023-06-04T03:47:38;23.50;33.80
67870;DHT22;54673;52.262;6.830;2023-06-04T03:50:04;23.50;33.80
67870;DHT22;54673;52.262;6.830;2023-06-04T03:52:30;23.50;33.80
67870;DHT22;54673;52.262;6.830;2023-06-04T03:54:56;23.50;33.80
67870;DHT22;54673;52.262;6.830;2023-06-04T03:57:22;23.50;33.80
67870;DHT22;54673;52.262;6.830;2023-06-04T03:59:48;23.50;33.80
67870;DHT22;54673;52.262;6.830;2023-06-04T04:02:13;23.50;33.80
67870;DHT22;54673;52.262;6.830;2023-06-04T04:04:40;23.50;33.80
67870;DHT22;54673;52.262;6.830;2023-06-04T04:07:05;23.50;33.80
67870;DHT22;54673;52.262;6.830;2023-06-04T04:09:31;23.50;33.80
67870;DHT22;54673;52.262;6.830;2023-06-04T04:11:57;23.50;33.80
67870;DHT22;54673;52.262;6.830;2023-06-04T04:14:22;23.40;33.80
67870;DHT22;54673;52.262;6.830;2023-06-04T04:16:48;23.50;33.80
67870;DHT22;54673;52.262;6.830;2023-06-04T04:19:13;23.50;33.80
67870;DHT22;54673;52.262;6.830;2023-06-04T04:21:39;23.50;33.90
67870;DHT22;54673;52.262;6.830;2023-06-04T04:24:05;23.50;33.80
67870;DHT22;54673;52.262;6.830;2023-06-04T04:26:32;23.50;33.80
67870;DHT22;54673;52.262;6.830;2023-06-04T04:28:58;23.50;33.90
67870;DHT22;54673;52.262;6.830;2023-06-04T04:31:28;23.50;33.90
67870;DHT22;54673;52.262;6.830;2023-06-04T04:33:56;23.50;33.80
67870;DHT22;54673;52.262;6.830;2023-06-04T04:36:21;23.50;33.90
67870;DHT22;54673;52.262;6.830;2023-06-04T04:38:47;23.50;33.90
67870;DHT22;54673;52.262;6.830;2023-06-04T04:41:20;23.50;33.90
67870;DHT22;54673;52.262;6.830;2023-06-04T04:43:46;23.50;34.00
67870;DHT22;54673;52.262;6.830;2023-06-04T04:46:12;23.40;33.90
67870;DHT22;54673;52.262;6.830;2023-06-04T04:48:37;23.50;34.00
67870;DHT22;54673;52.262;6.830;2023-06-04T04:51:04;23.50;34.00
67870;DHT22;54673;52.262;6.830;2023-06-04T04:53:29;23.50;34.00
67870;DHT22;54673;52.262;6.830;2023-06-04T04:55:55;23.50;34.10
67870;DHT22;54673;52.262;6.830;2023-06-04T04:58:21;23.50;34.00
67870;DHT22;54673;52.262;6.830;2023-06-04T05:00:46;23.30;33.90
67870;DHT22;54673;52.262;6.830;2023-06-04T05:03:13;23.50;34.10
67870;DHT22;54673;52.262;6.830;2023-06-04T05:05:39;23.50;34.10
67870;DHT22;54673;52.262;6.830;2023-06-04T05:08:05;23.50;34.10
67870;DHT22;54673;52.262;6.830;2023-06-04T05:10:30;23.50;34.10
67870;DHT22;54673;52.262;6.830;2023-06-04T05:12:59;23.50;34.20
67870;DHT22;54673;52.262;6.830;2023-06-04T05:15:27;23.50;34.20
67870;DHT22;54673;52.262;6.830;2023-06-04T05:17:53;23.50;34.20
67870;DHT22;54673;52.262;6.830;2023-06-04T05:20:19;23.50;34.20
67870;DHT22;54673;52.262;6.830;2023-06-04T05:22:46;23.50;34.20
67870;DHT22;54673;52.262;6.830;2023-06-04T05:25:12;23.50;34.30
67870;DHT22;54673;52.262;6.830;2023-06-04T05:27:39;23.50;34.30
67870;DHT22;54673;52.262;6.830;2023-06-04T05:30:05;23.50;34.40
67870;DHT22;54673;52.262;6.830;2023-06-04T05:32:32;23.50;34.50
67870;DHT22;54673;52.262;6.830;2023-06-04T05:34:58;23.40;34.50
67870;DHT22;54673;52.262;6.830;2023-06-04T05:37:25;23.40;34.60
67870;DHT22;54673;52.262;6.830;2023-06-04T05:39:57;23.50;34.70
67870;DHT22;54673;52.262;6.830;2023-06-04T05:42:22;23.50;34.80
67870;DHT22;54673;52.262;6.830;2023-06-04T05:44:49;23.50;34.70
67870;DHT22;54673;52.262;6.830;2023-06-04T05:47:15;23.50;34.80
67870;DHT22;54673;52.262;6.830;2023-06-04T05:49:42;23.50;34.80
67870;DHT22;54673;52.262;6.830;2023-06-04T05:52:07;23.40;34.80
67870;DHT22;54673;52.262;6.830;2023-06-04T05:54:33;23.40;34.90
67870;DHT22;54673;52.262;6.830;2023-06-04T05:56:58;23.40;34.80
67870;DHT22;54673;52.262;6.830;2023-06-04T05:59:24;23.50;34.90
67870;DHT22;54673;52.262;6.830;2023-06-04T06:01:50;23.50;35.00
67870;DHT22;54673;52.262;6.830;2023-06-04T06:04:15;23.50;35.00
67870;DHT22;54673;52.262;6.830;2023-06-04T06:06:41;23.50;35.10
67870;DHT22;54673;52.262;6.830;2023-06-04T06:09:10;23.50;35.10
67870;DHT22;54673;52.262;6.830;2023-06-04T06:11:36;23.50;35.10
67870;DHT22;54673;52.262;6.830;2023-06-04T06:14:01;23.50;35.10
67870;DHT22;54673;52.262;6.830;2023-06-04T06:16:27;23.50;35.10
67870;DHT22;54673;52.262;6.830;2023-06-04T06:18:52;23.50;35.10
67870;DHT22;54673;52.262;6.830;2023-06-04T06:21:19;23.40;35.10
67870;DHT22;54673;52.262;6.830;2023-06-04T06:23:45;23.50;35.10
67870;DHT22;54673;52.262;6.830;2023-06-04T06:26:11;23.50;35.10
67870;DHT22;54673;52.262;6.830;2023-06-04T06:28:37;23.50;35.10
67870;DHT22;54673;52.262;6.830;2023-06-04T06:31:03;23.50;35.10
67870;DHT22;54673;52.262;6.830;2023-06-04T06:33:28;23.50;35.00
67870;DHT22;54673;52.262;6.830;2023-06-04T06:35:54;23.50;35.00
67870;DHT22;54673;52.262;6.830;2023-06-04T06:38:19;23.50;35.00
67870;DHT22;54673;52.262;6.830;2023-06-04T06:40:45;23.30;34.90
67870;DHT22;54673;52.262;6.830;2023-06-04T06:43:11;23.50;35.00
67870;DHT22;54673;52.262;6.830;2023-06-04T06:45:37;23.50;35.10
67870;DHT22;54673;52.262;6.830;2023-06-04T06:48:03;23.50;35.10
67870;DHT22;54673;52.262;6.830;2023-06-04T06:50:29;23.50;35.10
67870;DHT22;54673;52.262;6.830;2023-06-04T06:52:55;23.50;35.10
67870;DHT22;54673;52.262;6.830;2023-06-04T06:55:20;23.50;35.20
67870;DHT22;54673;52.262;6.830;2023-06-04T06:57:46;23.50;35.20
67870;DHT22;54673;52.262;6.830;2023-06-04T07:00:12;23.50;35.10
67870;DHT22;54673;52.262;6.830;2023-06-04T07:02:37;23.50;35.10
67870;DHT22;54673;52.262;6.830;2023-06-04T07:05:03;23.50;35.10
67870;DHT22;54673;52.262;6.830;2023-06-04T07:07:29;23.50;35.10
67870;DHT22;54673;52.262;6.830;2023-06-04T07:09:54;23.50;35.10
67870;DHT22;54673;52.262;6.830;2023-06-04T07:12:20;23.60;35.10
67870;DHT22;54673;52.262;6.830;2023-06-04T07:14:46;23.60;35.10
67870;DHT22;54673;52.262;6.830;2023-06-04T07:17:12;23.60;35.10
67870;DHT22;54673;52.262;6.830;2023-06-04T07:19:37;23.60;35.20
67870;DHT22;54673;52.262;6.830;2023-06-04T07:22:03;23.60;35.10
67870;DHT22;54673;52.262;6.830;2023-06-04T07:24:29;23.60;35.10
67870;DHT22;54673;52.262;6.830;2023-06-04T07:26:54;23.60;35.10
67870;DHT22;54673;52.262;6.830;2023-06-04T07:29:20;23.60;35.10
67870;DHT22;54673;52.262;6.830;2023-06-04T07:31:45;23.60;35.10
67870;DHT22;54673;52.262;6.830;2023-06-04T07:34:11;23.60;35.10
67870;DHT22;54673;52.262;6.830;2023-06-04T07:36:37;23.60;35.10
67870;DHT22;54673;52.262;6.830;2023-06-04T07:39:02;23.60;35.10
67870;DHT22;54673;52.262;6.830;2023-06-04T07:41:30;23.60;35.10
67870;DHT22;54673;52.262;6.830;2023-06-04T07:43:55;23.60;35.10
67870;DHT22;54673;52.262;6.830;2023-06-04T07:46:21;23.60;35.10
67870;DHT22;54673;52.262;6.830;2023-06-04T07:48:46;23.60;35.10
67870;DHT22;54673;52.262;6.830;2023-06-04T07:51:13;23.60;35.20
67870;DHT22;54673;52.262;6.830;2023-06-04T07:53:38;23.70;35.30
67870;DHT22;54673;52.262;6.830;2023-06-04T07:56:05;23.60;35.30
67870;DHT22;54673;52.262;6.830;2023-06-04T07:58:30;23.70;35.40
67870;DHT22;54673;52.262;6.830;2023-06-04T08:00:56;23.70;35.50
67870;DHT22;54673;52.262;6.830;2023-06-04T08:03:22;23.70;35.50
67870;DHT22;54673;52.262;6.830;2023-06-04T08:05:48;23.70;36.40
67870;DHT22;54673;52.262;6.830;2023-06-04T08:08:14;23.60;35.50
67870;DHT22;54673;52.262;6.830;2023-06-04T08:10:40;23.70;35.50
67870;DHT22;54673;52.262;6.830;2023-06-04T08:13:05;23.70;35.60
67870;DHT22;54673;52.262;6.830;2023-06-04T08:15:31;23.70;35.70
67870;DHT22;54673;52.262;6.830;2023-06-04T08:17:57;24.40;36.00
67870;DHT22;54673;52.262;6.830;2023-06-04T08:20:23;23.80;35.70
67870;DHT22;54673;52.262;6.830;2023-06-04T08:22:49;23.80;35.70
67870;DHT22;54673;52.262;6.830;2023-06-04T08:25:14;23.80;35.70
67870;DHT22;54673;52.262;6.830;2023-06-04T08:27:41;23.80;35.80
67870;DHT22;54673;52.262;6.830;2023-06-04T08:30:07;23.80;35.80
67870;DHT22;54673;52.262;6.830;2023-06-04T08:32:33;23.80;35.70
67870;DHT22;54673;52.262;6.830;2023-06-04T08:34:59;23.80;35.70
67870;DHT22;54673;52.262;6.830;2023-06-04T08:37:25;23.80;36.70
67870;DHT22;54673;52.262;6.830;2023-06-04T08:39:51;23.90;36.80
67870;DHT22;54673;52.262;6.830;2023-06-04T08:42:30;23.80;35.80
67870;DHT22;54673;52.262;6.830;2023-06-04T08:44:59;23.80;35.70
67870;DHT22;54673;52.262;6.830;2023-06-04T08:47:25;23.80;35.70
67870;DHT22;54673;52.262;6.830;2023-06-04T08:49:52;23.80;35.60
67870;DHT22;54673;52.262;6.830;2023-06-04T08:52:20;23.90;35.70
67870;DHT22;54673;52.262;6.830;2023-06-04T08:54:49;23.80;35.60
67870;DHT22;54673;52.262;6.830;2023-06-04T08:57:17;23.80;35.50
67870;DHT22;54673;52.262;6.830;2023-06-04T08:59:48;23.80;35.50
67870;DHT22;54673;52.262;6.830;2023-06-04T09:02:17;23.90;35.40
67870;DHT22;54673;52.262;6.830;2023-06-04T09:04:44;23.80;35.40
67870;DHT22;54673;52.262;6.830;2023-06-04T09:07:12;23.80;35.40
67870;DHT22;54673;52.262;6.830;2023-06-04T09:09:39;23.80;35.40
67870;DHT22;54673;52.262;6.830;2023-06-04T09:12:21;23.80;35.40
67870;DHT22;54673;52.262;6.830;2023-06-04T09:14:48;23.90;35.30
67870;DHT22;54673;52.262;6.830;2023-06-04T09:17:20;23.90;35.20
67870;DHT22;54673;52.262;6.830;2023-06-04T09:19:47;23.90;35.30
67870;DHT22;54673;52.262;6.830;2023-06-04T09:22:12;24.00;35.30
67870;DHT22;54673;52.262;6.830;2023-06-04T09:24:43;24.00;35.30
67870;DHT22;54673;52.262;6.830;2023-06-04T09:27:16;24.00;35.30
67870;DHT22;54673;52.262;6.830;2023-06-04T09:29:57;24.10;35.30
67870;DHT22;54673;52.262;6.830;2023-06-04T09:32:24;24.10;35.20
67870;DHT22;54673;52.262;6.830;2023-06-04T09:34:49;24.20;35.20
67870;DHT22;54673;52.262;6.830;2023-06-04T09:37:16;24.20;35.20
67870;DHT22;54673;52.262;6.830;2023-06-04T09:39:56;24.30;35.20
67870;DHT22;54673;52.262;6.830;2023-06-04T09:42:23;24.30;35.10
67870;DHT22;54673;52.262;6.830;2023-06-04T09:44:48;24.30;35.00
67870;DHT22;54673;52.262;6.830;2023-06-04T09:47:14;24.40;34.90
67870;DHT22;54673;52.262;6.830;2023-06-04T09:49:45;24.40;34.80
67870;DHT22;54673;52.262;6.830;2023-06-04T09:52:11;24.40;34.60
67870;DHT22;54673;52.262;6.830;2023-06-04T09:54:39;24.40;34.70
67870;DHT22;54673;52.262;6.830;2023-06-04T09:57:17;24.40;34.50
67870;DHT22;54673;52.262;6.830;2023-06-04T09:59:48;24.40;34.40
67870;DHT22;54673;52.262;6.830;2023-06-04T10:02:19;24.40;34.40
67870;DHT22;54673;52.262;6.830;2023-06-04T10:04:49;24.50;34.40
67870;DHT22;54673;52.262;6.830;2023-06-04T10:07:18;24.50;34.30
67870;DHT22;54673;52.262;6.830;2023-06-04T10:09:44;24.50;34.20
67870;DHT22;54673;52.262;6.830;2023-06-04T10:12:15;24.50;34.20
67870;DHT22;54673;52.262;6.830;2023-06-04T10:14:49;24.60;34.20
67870;DHT22;54673;52.262;6.830;2023-06-04T10:17:17;24.60;34.10
67870;DHT22;54673;52.262;6.830;2023-06-04T10:19:44;24.60;34.00
67870;DHT22;54673;52.262;6.830;2023-06-04T10:22:10;24.60;33.60
67870;DHT22;54673;52.262;6.830;2023-06-04T10:24:37;24.60;33.60
67870;DHT22;54673;52.262;6.830;2023-06-04T10:27:04;24.60;33.60
67870;DHT22;54673;52.262;6.830;2023-06-04T10:29:36;24.60;33.60
67870;DHT22;54673;52.262;6.830;2023-06-04T10:32:02;24.60;33.70
67870;DHT22;54673;52.262;6.830;2023-06-04T10:34:28;24.60;33.50
67870;DHT22;54673;52.262;6.830;2023-06-04T10:36:53;24.70;33.60
67870;DHT22;54673;52.262;6.830;2023-06-04T10:39:30;24.60;33.40
67870;DHT22;54673;52.262;6.830;2023-06-04T10:42:01;24.70;33.50
67870;DHT22;54673;52.262;6.830;2023-06-04T10:44:28;24.70;34.30
67870;DHT22;54673;52.262;6.830;2023-06-04T10:46:54;24.70;33.40
67870;DHT22;54673;52.262;6.830;2023-06-04T10:49:30;24.70;33.30
67870;DHT22;54673;52.262;6.830;2023-06-04T10:51:57;24.70;33.30
67870;DHT22;54673;52.262;6.830;2023-06-04T10:54:28;24.70;33.30
67870;DHT22;54673;52.262;6.830;2023-06-04T10:56:54;24.70;33.40
67870;DHT22;54673;52.262;6.830;2023-06-04T10:59:19;24.80;33.10
67870;DHT22;54673;52.262;6.830;2023-06-04T11:01:45;24.80;33.00
67870;DHT22;54673;52.262;6.830;2023-06-04T11:04:26;24.80;32.90
67870;DHT22;54673;52.262;6.830;2023-06-04T11:07:04;24.80;32.40
67870;DHT22;54673;52.262;6.830;2023-06-04T11:09:38;24.80;31.90
67870;DHT22;54673;52.262;6.830;2023-06-04T11:12:12;24.80;31.90
67870;DHT22;54673;52.262;6.830;2023-06-04T11:14:37;24.90;31.80
67870;DHT22;54673;52.262;6.830;2023-06-04T11:17:13;24.90;31.90
67870;DHT22;54673;52.262;6.830;2023-06-04T11:19:39;24.90;31.60
67870;DHT22;54673;52.262;6.830;2023-06-04T11:22:05;24.90;31.20
67870;DHT22;54673;52.262;6.830;2023-06-04T11:24:32;24.90;31.40
67870;DHT22;54673;52.262;6.830;2023-06-04T11:26:58;24.90;31.80
67870;DHT22;54673;52.262;6.830;2023-06-04T11:29:26;24.90;32.20
67870;DHT22;54673;52.262;6.830;2023-06-04T11:31:51;24.80;32.30
67870;DHT22;54673;52.262;6.830;2023-06-04T11:34:24;24.90;32.50
67870;DHT22;54673;52.262;6.830;2023-06-04T11:36:50;24.90;32.40
67870;DHT22;54673;52.262;6.830;2023-06-04T11:39:18;25.00;32.00
67870;DHT22;54673;52.262;6.830;2023-06-04T11:41:44;25.00;31.60
67870;DHT22;54673;52.262;6.830;2023-06-04T11:44:11;25.10;31.80
67870;DHT22;54673;52.262;6.830;2023-06-04T11:46:40;25.00;32.10
67870;DHT22;54673;52.262;6.830;2023-06-04T11:49:07;25.00;31.80
67870;DHT22;54673;52.262;6.830;2023-06-04T11:51:33;25.00;31.50
67870;DHT22;54673;52.262;6.830;2023-06-04T11:53:58;25.00;31.10
67870;DHT22;54673;52.262;6.830;2023-06-04T11:56:25;25.00;31.00
67870;DHT22;54673;52.262;6.830;2023-06-04T11:58:54;25.00;30.90
67870;DHT22;54673;52.262;6.830;2023-06-04T12:01:20;24.90;31.00
67870;DHT22;54673;52.262;6.830;2023-06-04T12:03:46;24.80;31.20
67870;DHT22;54673;52.262;6.830;2023-06-04T12:06:18;24.80;31.40
67870;DHT22;54673;52.262;6.830;2023-06-04T12:08:49;24.80;31.50
67870;DHT22;54673;52.262;6.830;2023-06-04T12:11:26;24.70;31.60
67870;DHT22;54673;52.262;6.830;2023-06-04T12:13:54;24.70;31.70
67870;DHT22;54673;52.262;6.830;2023-06-04T12:16:19;24.70;31.80
67870;DHT22;54673;52.262;6.830;2023-06-04T12:18:45;24.60;31.80
67870;DHT22;54673;52.262;6.830;2023-06-04T12:21:24;24.70;31.90
67870;DHT22;54673;52.262;6.830;2023-06-04T12:24:13;24.80;31.80
67870;DHT22;54673;52.262;6.830;2023-06-04T12:26:41;24.80;31.80
67870;DHT22;54673;52.262;6.830;2023-06-04T12:29:11;24.90;32.00
67870;DHT22;54673;52.262;6.830;2023-06-04T12:31:42;24.90;31.90
67870;DHT22;54673;52.262;6.830;2023-06-04T12:34:08;25.00;31.90
67870;DHT22;54673;52.262;6.830;2023-06-04T12:36:34;25.00;31.60
67870;DHT22;54673;52.262;6.830;2023-06-04T12:39:00;25.10;31.60
67870;DHT22;54673;52.262;6.830;2023-06-04T12:41:27;25.10;31.70
67870;DHT22;54673;52.262;6.830;2023-06-04T12:43:53;25.10;31.80
67870;DHT22;54673;52.262;6.830;2023-06-04T12:46:19;25.10;31.60
67870;DHT22;54673;52.262;6.830;2023-06-04T12:48:45;25.20;31.70
67870;DHT22;54673;52.262;6.830;2023-06-04T12:51:11;25.20;31.70
67870;DHT22;54673;52.262;6.830;2023-06-04T12:53:43;25.30;31.80
67870;DHT22;54673;52.262;6.830;2023-06-04T12:56:09;25.30;32.80
67870;DHT22;54673;52.262;6.830;2023-06-04T12:58:35;25.30;31.80
67870;DHT22;54673;52.262;6.830;2023-06-04T13:01:01;25.40;31.80
67870;DHT22;54673;52.262;6.830;2023-06-04T13:03:26;25.40;31.90
67870;DHT22;54673;52.262;6.830;2023-06-04T13:05:52;25.50;32.00
67870;DHT22;54673;52.262;6.830;2023-06-04T13:08:19;25.50;31.90
67870;DHT22;54673;52.262;6.830;2023-06-04T13:10:49;25.50;31.90
67870;DHT22;54673;52.262;6.830;2023-06-04T13:13:16;25.60;31.90
67870;DHT22;54673;52.262;6.830;2023-06-04T13:15:45;25.50;31.80
67870;DHT22;54673;52.262;6.830;2023-06-04T13:18:11;25.60;31.80
67870;DHT22;54673;52.262;6.830;2023-06-04T13:20:37;25.60;31.80
67870;DHT22;54673;52.262;6.830;2023-06-04T13:23:03;25.60;31.80
67870;DHT22;54673;52.262;6.830;2023-06-04T13:25:28;25.60;31.70
67870;DHT22;54673;52.262;6.830;2023-06-04T13:27:54;25.70;31.70
67870;DHT22;54673;52.262;6.830;2023-06-04T13:30:21;25.70;31.70
67870;DHT22;54673;52.262;6.830;2023-06-04T13:32:47;25.70;31.80
67870;DHT22;54673;52.262;6.830;2023-06-04T13:35:12;25.70;31.90
67870;DHT22;54673;52.262;6.830;2023-06-04T13:37:38;25.70;31.90
67870;DHT22;54673;52.262;6.830;2023-06-04T13:40:04;25.80;32.10
67870;DHT22;54673;52.262;6.830;2023-06-04T13:42:30;25.80;32.20
67870;DHT22;54673;52.262;6.830;2023-06-04T13:44:55;25.80;32.30
67870;DHT22;54673;52.262;6.830;2023-06-04T13:47:21;25.80;32.30
67870;DHT22;54673;52.262;6.830;2023-06-04T13:49:47;25.90;32.30
67870;DHT22;54673;52.262;6.830;2023-06-04T13:52:12;25.90;32.20
67870;DHT22;54673;52.262;6.830;2023-06-04T13:54:38;25.90;32.30
67870;DHT22;54673;52.262;6.830;2023-06-04T13:57:04;25.90;32.30
67870;DHT22;54673;52.262;6.830;2023-06-04T13:59:29;26.00;32.30
67870;DHT22;54673;52.262;6.830;2023-06-04T14:01:56;26.00;32.20
67870;DHT22;54673;52.262;6.830;2023-06-04T14:04:22;26.00;32.20
67870;DHT22;54673;52.262;6.830;2023-06-04T14:06:47;26.10;32.20
67870;DHT22;54673;52.262;6.830;2023-06-04T14:09:13;26.10;32.20
67870;DHT22;54673;52.262;6.830;2023-06-04T14:11:39;26.20;32.40
67870;DHT22;54673;52.262;6.830;2023-06-04T14:14:05;26.20;32.40
67870;DHT22;54673;52.262;6.830;2023-06-04T14:16:31;26.20;32.40
67870;DHT22;54673;52.262;6.830;2023-06-04T14:18:56;26.30;32.40
67870;DHT22;54673;52.262;6.830;2023-06-04T14:21:22;26.30;32.40
67870;DHT22;54673;52.262;6.830;2023-06-04T14:23:48;26.30;33.40
67870;DHT22;54673;52.262;6.830;2023-06-04T14:26:14;26.30;32.50
67870;DHT22;54673;52.262;6.830;2023-06-04T14:28:43;26.40;32.50
67870;DHT22;54673;52.262;6.830;2023-06-04T14:31:08;26.40;32.50
67870;DHT22;54673;52.262;6.830;2023-06-04T14:33:34;26.40;32.50
67870;DHT22;54673;52.262;6.830;2023-06-04T14:36:01;26.40;32.50
67870;DHT22;54673;52.262;6.830;2023-06-04T14:38:26;26.50;32.40
67870;DHT22;54673;52.262;6.830;2023-06-04T14:40:52;26.60;32.50
67870;DHT22;54673;52.262;6.830;2023-06-04T14:43:20;26.60;32.50
67870;DHT22;54673;52.262;6.830;2023-06-04T14:45:46;26.70;32.60
67870;DHT22;54673;52.262;6.830;2023-06-04T14:48:11;26.70;32.50
67870;DHT22;54673;52.262;6.830;2023-06-04T14:50:37;26.80;32.60
67870;DHT22;54673;52.262;6.830;2023-06-04T14:53:03;26.80;32.70
67870;DHT22;54673;52.262;6.830;2023-06-04T14:55:35;26.80;32.70
67870;DHT22;54673;52.262;6.830;2023-06-04T14:58:01;26.90;32.80
67870;DHT22;54673;52.262;6.830;2023-06-04T15:00:28;26.90;32.80
67870;DHT22;54673;52.262;6.830;2023-06-04T15:02:54;26.90;32.80
67870;DHT22;54673;52.262;6.830;2023-06-04T15:05:19;27.00;32.80
67870;DHT22;54673;52.262;6.830;2023-06-04T15:07:45;27.30;33.00
67870;DHT22;54673;52.262;6.830;2023-06-04T15:10:10;26.90;32.00
67870;DHT22;54673;52.262;6.830;2023-06-04T15:12:36;26.70;31.30
67870;DHT22;54673;52.262;6.830;2023-06-04T15:15:07;26.50;31.10
67870;DHT22;54673;52.262;6.830;2023-06-04T15:17:34;26.40;30.90
67870;DHT22;54673;52.262;6.830;2023-06-04T15:19:59;26.30;30.60
67870;DHT22;54673;52.262;6.830;2023-06-04T15:22:25;26.20;30.40
67870;DHT22;54673;52.262;6.830;2023-06-04T15:24:52;26.10;30.40
67870;DHT22;54673;52.262;6.830;2023-06-04T15:27:18;25.80;30.30
67870;DHT22;54673;52.262;6.830;2023-06-04T15:29:44;26.00;30.40
67870;DHT22;54673;52.262;6.830;2023-06-04T15:32:10;26.00;30.30
67870;DHT22;54673;52.262;6.830;2023-06-04T15:34:35;26.00;30.50